Home > Products > Valid Products > TAF

000
FTUS46 KSEW 061100
TAFBFI
TAF
KBFI 061120Z 0612/0712 VRB04KT P6SM BKN200=



000
FTUS46 KSEW 061100
TAFCLM
TAF
KCLM 061120Z 0612/0712 VRB03KT P6SM BKN200=



000
FTUS46 KSEW 061100
TAFHQM
TAF
KHQM 061120Z 0612/0712 08006KT P6SM BKN200
     FM062100 18005KT P6SM BKN200
     FM070300 08004KT P6SM BKN200=



000
FTUS46 KSEW 061100
TAFOLM
TAF
KOLM 061120Z 0612/0712 00000KT P6SM BKN250
      TEMPO 0612/0615 00000KT 4SM BR SCT250
     FM061800 VRB03KT P6SM SCT250=



000
FTUS46 KSEW 061100
TAFPAE
TAF
KPAE 061120Z 0612/0712 30004KT P6SM BKN200=



000
FTUS46 KSEW 061100
TAFSEA
TAF
KSEA 061120Z 0612/0718 04004KT P6SM BKN200
     FM061800 33005KT P6SM BKN200
     FM070400 03003KT P6SM BKN200=



000
FTUS46 KSEW 061100
TAFBLI
TAF
KBLI 061120Z 0612/0712 16004KT P6SM BKN200=



000
FTUS46 KSEW 060900 AAA
TAFSEA
TAF AMD
KSEA 060904Z 0609/0712 03003KT P6SM BKN200
     FM061800 33005KT P6SM BKN200
     FM070400 03003KT P6SM BKN200=



000
FTUS46 KSEW 060500
TAFPAE
TAF
KPAE 060520Z 0606/0706 30004KT P6SM BKN200=



000
FTUS46 KSEW 060500
TAFBFI
TAF
KBFI 060520Z 0606/0706 VRB04KT P6SM BKN200=



000
FTUS46 KSEW 060500
TAFCLM
TAF
KCLM 060520Z 0606/0706 VRB03KT P6SM BKN200=



000
FTUS46 KSEW 060500
TAFOLM
TAF
KOLM 060520Z 0606/0706 00000KT P6SM BKN250
      TEMPO 0611/0615 00000KT 4SM BR SCT250
     FM061800 VRB03KT P6SM SCT250=



000
FTUS46 KSEW 060500
TAFSEA
TAF
KSEA 060520Z 0606/0712 03003KT P6SM BKN200
     FM061800 33005KT P6SM BKN200
     FM070400 03003KT P6SM BKN200=



000
FTUS46 KSEW 060500
TAFHQM
TAF
KHQM 060520Z 0606/0706 08006KT P6SM BKN200
     FM062100 18005KT P6SM BKN200
     FM070300 08004KT P6SM BKN200=



000
FTUS46 KSEW 060500
TAFBLI
TAF
KBLI 060520Z 0606/0706 16004KT P6SM BKN200=



000
FTUS46 KSEW 060300 AAA
TAFSEA
TAF AMD
KSEA 060300Z 0603/0706 31003KT P6SM BKN200=



000
FTUS46 KSEW 052300
TAFSEA
TAF
KSEA 052332Z 0600/0706 31003KT P6SM BKN250=



000
FTUS46 KSEW 052300
TAFHQM
TAF
KHQM 052332Z 0600/0624 23005KT P6SM BKN250
     FM060400 08006KT P6SM BKN250=



000
FTUS46 KSEW 052300
TAFBLI
TAF
KBLI 052332Z 0600/0624 15005KT P6SM BKN250=



000
FTUS46 KSEW 052300
TAFHQM
TAF
KHQM 052332Z 0600/0624 23005KT P6SM BKN250
     FM060400 08006KT P6SM BKN250=



000
FTUS46 KSEW 052300
TAFBLI
TAF
KBLI 052332Z 0600/0624 15005KT P6SM BKN250=



000
FTUS46 KSEW 052300
TAFOLM
TAF
KOLM 052332Z 0600/0624 00000KT P6SM SCT250
     FM060900 00000KT 4SM BR SCT250
     FM061800 VRB03KT P6SM SCT250=



000
FTUS46 KSEW 052300
TAFPAE
TAF
KPAE 052332Z 0600/0624 30004KT P6SM BKN250=



000
FTUS46 KSEW 052300
TAFOLM
TAF
KOLM 052332Z 0600/0624 00000KT P6SM SCT250
     FM060900 00000KT 4SM BR SCT250
     FM061800 VRB03KT P6SM SCT250=



000
FTUS46 KSEW 052300
TAFBFI
TAF
KBFI 052332Z 0600/0624 34004KT P6SM BKN250=



000
FTUS46 KSEW 052300
TAFCLM
TAF
KCLM 052332Z 0600/0624 VRB03KT P6SM BKN250=



000
FTUS46 KSEW 052300
TAFSEA
TAF
KSEA 052332Z 0600/0706 31003KT P6SM BKN250=



000
FTUS46 KSEW 052300
TAFBFI
TAF
KBFI 052332Z 0600/0624 34004KT P6SM BKN250=



000
FTUS46 KSEW 052300
TAFPAE
TAF
KPAE 052332Z 0600/0624 30004KT P6SM BKN250=



000
FTUS46 KSEW 052300
TAFCLM
TAF
KCLM 052332Z 0600/0624 VRB03KT P6SM BKN250=



000
FTUS46 KSEW 052100 AAA
TAFSEA
TAF AMD
KSEA 052102Z 0521/0624 27005KT P6SM FEW120 BKN230
     FM060400 36004KT P6SM SCT250=



000
FTUS46 KSEW 051700
TAFBFI
TAF
KBFI 051726Z 0518/0618 15002KT P6SM BKN250=



000
FTUS46 KSEW 051700
TAFCLM
TAF
KCLM 051726Z 0518/0618 VRB03KT P6SM OVC250=



000
FTUS46 KSEW 051700
TAFHQM
TAF
KHQM 051726Z 0518/0618 08006KT P6SM BKN250=



000
FTUS46 KSEW 051700
TAFBLI
TAF
KBLI 051726Z 0518/0618 13002KT P6SM OVC250=



000
FTUS46 KSEW 051700
TAFSEA
TAF
KSEA 051726Z 0518/0624 VRB03KT P6SM BKN250=



000
FTUS46 KSEW 051700
TAFPAE
TAF
KPAE 051726Z 0518/0618 03002KT P6SM BKN250=



000
FTUS46 KSEW 051700
TAFOLM
TAF
KOLM 051726Z 0518/0618 00000KT P6SM SCT250
     FM061200 00000KT 4SM BR SCT250=



000
FTUS46 KSEW 051400 AAA
TAFSEA
TAF AMD
KSEA 051400Z 0514/0618 13003KT P6SM BKN150
     FM052000 34005KT P6SM BKN200
     FM060300 04005KT P6SM BKN200
     FM061200 VRB04KT P6SM SCT200=



000
FTUS46 KSEW 051100
TAFSEA
TAF
KSEA 051120Z 0512/0618 VRB04KT P6SM BKN200
     FM052000 34005KT P6SM BKN200
     FM060300 04005KT P6SM BKN200
     FM061200 VRB04KT P6SM SCT200=



000
FTUS46 KSEW 051100
TAFCLM
TAF
KCLM 051120Z 0512/0612 VRB04KT P6SM BKN200
     FM052200 26005KT P6SM SCT080 BKN200
     FM060300 24005KT P6SM SCT020 SCT080 BKN150=



000
FTUS46 KSEW 051100
TAFHQM
TAF
KHQM 051120Z 0512/0612 05006KT P6SM SCT250
      TEMPO 0512/0516 5SM BR FEW003 SCT250
     FM052000 05006KT P6SM BKN200=



000
FTUS46 KSEW 051100
TAFOLM
TAF
KOLM 051120Z 0512/0612 VRB03KT P6SM SCT250
      TEMPO 0513/0515 5SM BR FEW003 SCT250=



000
FTUS46 KSEW 051100
TAFBLI
TAF
KBLI 051120Z 0512/0612 VRB03KT P6SM BKN200
     FM052000 17005KT P6SM SCT100 BKN200
     FM060000 18005KT P6SM BKN070 BKN150=



000
FTUS46 KSEW 051100
TAFBFI
TAF
KBFI 051120Z 0512/0612 VRB03KT P6SM BKN200=



000
FTUS46 KSEW 051100
TAFPAE
TAF
KPAE 051120Z 0512/0612 VRB04KT P6SM BKN200
     FM060000 VRB04KT P6SM SCT070 BKN200=



000
FTUS46 KSEW 050900 AAA
TAFSEA
TAF AMD
KSEA 050901Z 0509/0612 VRB04KT P6SM SCT250
     FM052000 34005KT P6SM SCT200
     FM060300 02005KT P6SM SCT200=



000
FTUS46 KSEW 050900 AAA
TAFSEA
TAF AMD
KSEA 050901Z 0509/0612 VRB04KT P6SM SCT250
     FM052000 34005KT P6SM SCT200
     FM060300 02005KT P6SM SCT200=



000
FTUS46 KSEW 050500
TAFOLM
TAF
KOLM 050521Z 0506/0606 VRB03KT P6SM SCT250=



000
FTUS46 KSEW 050500
TAFBLI
TAF
KBLI 050521Z 0506/0606 VRB03KT P6SM BKN250
     FM052000 17005KT P6SM BKN250
     FM060000 18005KT P6SM SCT080 BKN200=



000
FTUS46 KSEW 050500
TAFBLI
TAF
KBLI 050521Z 0506/0606 VRB03KT P6SM BKN250
     FM052000 17005KT P6SM BKN250
     FM060000 18005KT P6SM SCT080 BKN200=



000
FTUS46 KSEW 050500
TAFOLM
TAF
KOLM 050521Z 0506/0606 VRB03KT P6SM SCT250=



000
FTUS46 KSEW 050500
TAFPAE
TAF
KPAE 050521Z 0506/0606 VRB04KT P6SM SCT250=



000
FTUS46 KSEW 050500
TAFBFI
TAF
KBFI 050521Z 0506/0606 VRB03KT P6SM SCT250=



000
FTUS46 KSEW 050500
TAFSEA
TAF
KSEA 050521Z 0506/0612 04005KT P6SM SCT250
     FM052000 34005KT P6SM SCT200
     FM060300 02005KT P6SM SCT200=



000
FTUS46 KSEW 050500
TAFHQM
TAF
KHQM 050521Z 0506/0606 VRB04KT P6SM SKC
     FM050700 06004KT P6SM SCT250=



000
FTUS46 KSEW 050500
TAFCLM
TAF
KCLM 050521Z 0506/0606 23006KT P6SM BKN250
     FM051200 VRB04KT P6SM BKN250
     FM052200 VRB04KT P6SM SCT080 BKN200=



000
FTUS46 KSEW 050500
TAFBFI
TAF
KBFI 050521Z 0506/0606 VRB03KT P6SM SCT250=



000
FTUS46 KSEW 050500
TAFCLM
TAF
KCLM 050521Z 0506/0606 23006KT P6SM BKN250
     FM051200 VRB04KT P6SM BKN250
     FM052200 VRB04KT P6SM SCT080 BKN200=



000
FTUS46 KSEW 050500
TAFPAE
TAF
KPAE 050521Z 0506/0606 VRB04KT P6SM SCT250=



000
FTUS46 KSEW 050500
TAFHQM
TAF
KHQM 050521Z 0506/0606 VRB04KT P6SM SKC
     FM050700 06004KT P6SM SCT250=



000
FTUS46 KSEW 050500
TAFSEA
TAF
KSEA 050521Z 0506/0612 04005KT P6SM SCT250
     FM052000 34005KT P6SM SCT200
     FM060300 02005KT P6SM SCT200=



000
FTUS46 KSEW 042300
TAFOLM
TAF
KOLM 042322Z 0500/0524 VRB03KT P6SM SKC
     FM050500 02003KT P6SM SCT250=



000
FTUS46 KSEW 042300
TAFCLM
TAF
KCLM 042322Z 0500/0524 09004KT P6SM SCT250
     FM050400 VRB03KT P6SM BKN250=



000
FTUS46 KSEW 042300
TAFBFI
TAF
KBFI 042322Z 0500/0524 VRB03KT P6SM SCT250
     FM050300 32004KT P6SM SCT250=



000
FTUS46 KSEW 042300
TAFHQM
TAF
KHQM 042322Z 0500/0524 25009KT P6SM SKC
     FM050700 08004KT P6SM SCT250=



000
FTUS46 KSEW 042300
TAFPAE
TAF
KPAE 042322Z 0500/0524 28004KT P6SM SCT250
     FM050300 32004KT P6SM SCT250=



000
FTUS46 KSEW 042300
TAFSEA
TAF
KSEA 042322Z 0500/0606 36005KT P6SM SCT250
     FM050300 03004KT P6SM SCT250=



000
FTUS46 KSEW 042300
TAFBLI
TAF
KBLI 042322Z 0500/0524 VRB03KT P6SM SCT250
     FM050400 02004KT P6SM BKN250=



000
FTUS46 KSEW 042100 AAA
TAFSEA
TAF AMD
KSEA 042103Z 0421/0524 26005KT P6SM SCT250
     FM050300 03004KT P6SM SCT250=



000
FTUS46 KSEW 041700
TAFBLI
TAF
KBLI 041730Z 0418/0518 36003KT P6SM SKC
     FM050200 02004KT P6SM SCT250=



000
FTUS46 KSEW 041700
TAFOLM
TAF
KOLM 041730Z 0418/0518 00000KT P6SM SKC
     FM050500 02003KT P6SM SCT250=



000
FTUS46 KSEW 041700
TAFBFI
TAF
KBFI 041730Z 0418/0518 00000KT P6SM SKC
     FM050300 32004KT P6SM SCT250=



000
FTUS46 KSEW 041700
TAFHQM
TAF
KHQM 041730Z 0418/0518 08007KT P6SM SKC
     FM050700 08004KT P6SM SCT250=



000
FTUS46 KSEW 041700
TAFSEA
TAF
KSEA 041730Z 0418/0524 00000KT P6SM SKC
     FM050300 03004KT P6SM SCT250=



000
FTUS46 KSEW 041700
TAFCLM
TAF
KCLM 041730Z 0418/0518 23003KT P6SM SKC
     FM050200 VRB03KT P6SM SCT250=



000
FTUS46 KSEW 041700
TAFPAE
TAF
KPAE 041730Z 0418/0518 00000KT P6SM SKC
     FM050300 32004KT P6SM SCT250=



000
FTUS46 KSEW 041700
TAFBLI
TAF
KBLI 041730Z 0418/0518 36003KT P6SM SKC
     FM050200 02004KT P6SM SCT250=



000
FTUS46 KSEW 041700
TAFPAE
TAF
KPAE 041730Z 0418/0518 00000KT P6SM SKC
     FM050300 32004KT P6SM SCT250=



000
FTUS46 KSEW 041700
TAFBFI
TAF
KBFI 041730Z 0418/0518 00000KT P6SM SKC
     FM050300 32004KT P6SM SCT250=



000
FTUS46 KSEW 041700
TAFSEA
TAF
KSEA 041730Z 0418/0524 00000KT P6SM SKC
     FM050300 03004KT P6SM SCT250=



000
FTUS46 KSEW 041400 AAB
TAFSEA
TAF AMD
KSEA 041403Z 0414/0518 00000KT P6SM SKC
     FM041800 34004KT P6SM SCT250
     FM050300 03004KT P6SM SCT250=



000
FTUS46 KSEW 041400 AAA
TAFSEA
TAF AMD
KSEA 041401Z 0414/0518 VRB03KT P6SM SKC
     FM041800 34004KT P6SM SCT250
     FM050300 03004KT P6SM SCT250=



000
FTUS46 KSEW 041400 AAA
TAFSEA
TAF AMD
KSEA 041401Z 0414/0518 VRB03KT P6SM SKC
     FM041800 34004KT P6SM SCT250
     FM050300 03004KT P6SM SCT250=



000
FTUS46 KSEW 041100
TAFPAE
TAF
KPAE 041128Z 0412/0512 VRB03KT P6SM SCT250
     FM041800 34004KT P6SM SCT250=



000
FTUS46 KSEW 041100
TAFSEA
TAF
KSEA 041128Z 0412/0518 12004KT P6SM SCT250
     FM041800 34004KT P6SM SCT250
     FM050300 03004KT P6SM SCT250=



000
FTUS46 KSEW 041100
TAFBLI
TAF
KBLI 041128Z 0412/0512 18003KT P6SM SCT250=



000
FTUS46 KSEW 041100
TAFBFI
TAF
KBFI 041128Z 0412/0512 VRB03KT P6SM SCT250
     FM042000 32004KT P6SM SCT250=



000
FTUS46 KSEW 041100
TAFHQM
TAF
KHQM 041128Z 0412/0512 07004KT 5SM BR SCT250
     FM041800 09005KT P6SM SCT250=



000
FTUS46 KSEW 041100
TAFCLM
TAF
KCLM 041128Z 0412/0512 23005KT P6SM SCT250
     FM041800 VRB04KT P6SM SCT250=



000
FTUS46 KSEW 041100
TAFOLM
TAF
KOLM 041128Z 0412/0512 00000KT P6SM SCT250
     FM041900 02003KT P6SM SCT250=



000
FTUS46 KSEW 040900 AAA
TAFSEA
TAF AMD
KSEA 040904Z 0409/0512 13004KT P6SM SCT250
     FM041800 34004KT P6SM SCT250=



000
FTUS46 KSEW 040500
TAFBLI
TAF
KBLI 040520Z 0406/0506 18003KT P6SM SCT250=



000
FTUS46 KSEW 040500
TAFCLM
TAF
KCLM 040520Z 0406/0506 11006KT P6SM SCT250
     FM041200 VRB04KT P6SM SCT250=



000
FTUS46 KSEW 040500
TAFBFI
TAF
KBFI 040520Z 0406/0506 VRB03KT P6SM SCT250=



000
FTUS46 KSEW 040500
TAFHQM
TAF
KHQM 040520Z 0406/0506 07004KT P6SM SCT250
     FM041000 06004KT 2SM BR SKC
      TEMPO 0412/0416 1/2SM FG VV001
     FM041800 09003KT 6SM BR FEW003
     FM041900 27008KT P6SM FEW250=



000
FTUS46 KSEW 040500
TAFPAE
TAF
KPAE 040520Z 0406/0506 VRB03KT P6SM SCT250
     FM041800 34004KT P6SM SCT250=



000
FTUS46 KSEW 040500
TAFSEA
TAF
KSEA 040520Z 0406/0512 04004KT P6SM SCT250
     FM041800 34004KT P6SM SCT250=



000
FTUS46 KSEW 040500
TAFOLM
TAF
KOLM 040520Z 0406/0506 00000KT P6SM SCT250
      TEMPO 0410/0412 1/2SM FG VV001
     FM041200 00000KT 2SM BR SCT001
      TEMPO 0412/0416 1/4SM FG VV001
     FM041900 VRB03KT P6SM SCT250=



000
FTUS46 KSEW 040300 AAA
TAFSEA
TAF AMD
KSEA 040301Z 0403/0506 02004KT P6SM SCT250
     FM041200 VRB04KT P6SM SCT250=



000
FTUS46 KSEW 032300
TAFHQM
TAF
KHQM 032323Z 0400/0424 28006KT P6SM SCT250
     FM040600 VRB03KT 5SM BR SKC
     FM041000 VRB03KT 2SM BR SKC
      TEMPO 0412/0416 1/2SM FG VV001
     FM041800 VRB03KT 6SM BR FEW003
     FM041900 27008KT P6SM FEW250=



000
FTUS46 KSEW 032300
TAFBFI
TAF
KBFI 032323Z 0400/0424 VRB03KT P6SM SCT250=



000
FTUS46 KSEW 032300
TAFSEA
TAF
KSEA 032323Z 0400/0506 30006KT P6SM BKN250
     FM040300 VRB04KT P6SM SCT250=



000
FTUS46 KSEW 032300
TAFOLM
TAF
KOLM 032323Z 0400/0424 VRB03KT P6SM SCT250
     FM040900 00000KT 5SM BR SKC
      TEMPO 0410/0412 1/2SM FG VV001
     FM041200 00000KT 2SM BR SCT001
      TEMPO 0412/0416 1/4SM FG VV001
     FM041900 VRB03KT P6SM FEW250=



000
FTUS46 KSEW 032300
TAFCLM
TAF
KCLM 032323Z 0400/0424 11006KT P6SM BKN250
     FM040200 VRB04KT P6SM SCT250=



000
FTUS46 KSEW 032300
TAFPAE
TAF
KPAE 032323Z 0400/0424 32006KT P6SM BKN250
     FM040200 VRB03KT P6SM SCT250=



000
FTUS46 KSEW 032300
TAFBLI
TAF
KBLI 032323Z 0400/0424 VRB03KT P6SM SCT250=



000
FTUS46 KSEW 032100 AAA
TAFOLM
TAF AMD
KOLM 032104Z 0321/0418 03006KT P6SM SCT250
     FM040900 00000KT 3SM BR SKC
      TEMPO 0412/0416 1/2SM FG VV001=



000
FTUS46 KSEW 032100 AAA
TAFPAE
TAF AMD
KPAE 032103Z 0321/0418 34006KT P6SM SCT250
     FM040200 VRB03KT P6SM SKC=



000
FTUS46 KSEW 032100 AAA
TAFBFI
TAF AMD
KBFI 032102Z 0321/0418 32006KT P6SM SCT250
     FM040200 VRB03KT P6SM SKC=



000
FTUS46 KSEW 032100 AAA
TAFSEA
TAF AMD
KSEA 032102Z 0321/0424 31005KT P6SM SCT250
     FM040300 VRB03KT P6SM SKC=



000
FTUS46 KSEW 032100 AAA
TAFBFI
TAF AMD
KBFI 032102Z 0321/0418 32006KT P6SM SCT250
     FM040200 VRB03KT P6SM SKC=



000
FTUS46 KSEW 031700
TAFHQM
TAF
KHQM 031740Z 0318/0418 09007KT P6SM BKN250
     FM040000 VRB04KT P6SM SKC=



000
FTUS46 KSEW 031700
TAFPAE
TAF
KPAE 031740Z 0318/0418 VRB03KT P6SM FEW250=



000
FTUS46 KSEW 031700
TAFSEA
TAF
KSEA 031740Z 0318/0424 VRB03KT P6SM SCT250
     FM032000 33005KT P6SM SCT250
     FM040300 VRB03KT P6SM SKC=



000
FTUS46 KSEW 031700
TAFBFI
TAF
KBFI 031740Z 0318/0418 VRB03KT P6SM FEW250=



000
FTUS46 KSEW 031700
TAFBLI
TAF
KBLI 031740Z 0318/0418 02012KT P6SM SCT250
     FM032100 33006KT P6SM SCT250
     FM040200 VRB03KT P6SM FEW250=



000
FTUS46 KSEW 031700
TAFCLM
TAF
KCLM 031740Z 0318/0418 19005KT P6SM BKN250
     FM032000 09006KT P6SM BKN250
     FM040200 VRB04KT P6SM SKC=



000
FTUS46 KSEW 031700
TAFOLM
TAF
KOLM 031740Z 0318/0418 VRB03KT P6SM SCT250
     FM032000 02005KT P6SM SCT250
     FM040900 00000KT 3SM BR SKC
      TEMPO 0412/0416 1/2SM FG VV001=



000
FTUS46 KSEW 031700
TAFBLI
TAF
KBLI 031740Z 0318/0418 02012KT P6SM SCT250
     FM032100 33006KT P6SM SCT250
     FM040200 VRB03KT P6SM FEW250=



000
FTUS46 KSEW 031700
TAFOLM
TAF
KOLM 031740Z 0318/0418 VRB03KT P6SM SCT250
     FM032000 02005KT P6SM SCT250
     FM040900 00000KT 3SM BR SKC
      TEMPO 0412/0416 1/2SM FG VV001=



000
FTUS46 KSEW 031700
TAFBFI
TAF
KBFI 031740Z 0318/0418 VRB03KT P6SM FEW250=



000
FTUS46 KSEW 031700
TAFSEA
TAF
KSEA 031740Z 0318/0424 VRB03KT P6SM SCT250
     FM032000 33005KT P6SM SCT250
     FM040300 VRB03KT P6SM SKC=



000
FTUS46 KSEW 031700
TAFCLM
TAF
KCLM 031740Z 0318/0418 19005KT P6SM BKN250
     FM032000 09006KT P6SM BKN250
     FM040200 VRB04KT P6SM SKC=



000
FTUS46 KSEW 031700
TAFHQM
TAF
KHQM 031740Z 0318/0418 09007KT P6SM BKN250
     FM040000 VRB04KT P6SM SKC=



000
FTUS46 KSEW 031700
TAFPAE
TAF
KPAE 031740Z 0318/0418 VRB03KT P6SM FEW250=



000
FTUS46 KSEW 031600 AAA
TAFHQM
TAF AMD
KHQM 031600Z 0316/0412 07006KT 5SM MIFG BKN250
     FM031800 07006KT P6SM BKN250
     FM032000 08008KT P6SM SCT200=



000
FTUS46 KSEW 031500 AAB
TAFOLM
TAF AMD
KOLM 031524Z 0315/0412 VRB03KT 6SM MIFG SKC
      TEMPO 0315/0317 4SM MIFG
     FM031800 02006KT P6SM FEW200=



000
FTUS46 KSEW 031400 AAA
TAFSEA
TAF AMD
KSEA 031403Z 0314/0418 15007KT P6SM SKC
     FM032000 35006KT P6SM FEW200
     FM040200 03004KT P6SM FEW200=



000
FTUS46 KSEW 031400 AAA
TAFSEA
TAF AMD
KSEA 031403Z 0314/0418 15007KT P6SM SKC
     FM032000 35006KT P6SM FEW200
     FM040200 03004KT P6SM FEW200=



000
FTUS46 KSEW 031400 AAA
TAFBLI
TAF AMD
KBLI 031403Z 0314/0412 02013KT P6SM SKC
     FM031800 02008KT P6SM FEW200
     FM032100 VRB04KT P6SM FEW200=



000
FTUS46 KSEW 031400 AAA
TAFBLI
TAF AMD
KBLI 031403Z 0314/0412 02013KT P6SM SKC
     FM031800 02008KT P6SM FEW200
     FM032100 VRB04KT P6SM FEW200=



000
FTUS46 KSEW 031300 AAA
TAFOLM
TAF AMD
KOLM 031324Z 0313/0412 VRB03KT P6SM FEW200
      TEMPO 0313/0316 3/4SM BR
     FM031800 02006KT P6SM FEW200=



    US Dept of Commerce
    National Oceanic and Atmospheric Administration
    National Weather Service
    1325 East West Highway
    Silver Spring, MD 20910
    Page Author: NWS Internet Services Team
Disclaimer
Information Quality
Credits
Glossary
Privacy Policy
Freedom of Information Act (FOIA)
About Us
Career Opportunities